Terminal Aerodrome Forecast
Issued by NWS Jacksonville, FL

Home | Current Version | Previous Version | Text Only | Print | Product List | Glossary On
Versions: 1 2 3 4 5 6 7 8 9 10 11 12 13
000
FTUS42 KJAX 282344
TAFGNV
TAF
KGNV 282344Z 2900/2924 15008KT P6SM SCT070
     FM290300 14004KT P6SM SCT250
     FM290900 00000KT 4SM BR SCT005
     FM291300 14009KT P6SM SCT035
     FM292100 12011G16KT P6SM SCT040=

USA.gov is the U.S. government's official web portal to all federal, state and local government web resources and services.